Terminal Aerodrome Forecast
Issued by NWS Charleston, WV

Current Version | Previous Version | Text Only | Print | Product List | Glossary Off
Versions: 1 2 3 4 5 6 7 8 9 10 11 12 13 14 15 16 17 18 19 20 21 22 23 24 25

000
FTUS41 KRLX 311400 AAA
TAFCRW
TAF AMD
KCRW 311451Z 3115/0112 22005KT P6SM SCT030 OVC090
     FM311600 21006KT P6SM OVC030
     FM311800 23006KT 6SM -SHRA VCTS OVC035CB
      TEMPO 3118/3121 VRB10G20KT 2SM TSRA OVC030CB
     FM312200 22005KT 6SM -SHRA BR VCTS OVC025CB
     FM010100 20006KT 5SM BR VCSH OVC020
     FM010400 21006KT 4SM BR OVC015
     FM010800 24002KT 1SM BR OVC014=

USA.gov is the U.S. government's official web portal to all federal, state and local government web resources and services.